sensor_id;sensor_type;location;lat;lon;timestamp;temperature;humidity
11423;DHT22;5768;51.476;7.210;2022-12-07T00:00:00;7.20;23.00
11423;DHT22;5768;51.476;7.210;2022-12-07T00:05:04;7.20;22.80
11423;DHT22;5768;51.476;7.210;2022-12-07T00:10:07;7.20;22.70
11423;DHT22;5768;51.476;7.210;2022-12-07T00:15:10;7.30;22.70
11423;DHT22;5768;51.476;7.210;2022-12-07T00:20:13;7.20;22.50
11423;DHT22;5768;51.476;7.210;2022-12-07T00:25:16;7.20;22.70
11423;DHT22;5768;51.476;7.210;2022-12-07T00:30:21;7.20;22.70
11423;DHT22;5768;51.476;7.210;2022-12-07T00:35:27;7.10;22.80
11423;DHT22;5768;51.476;7.210;2022-12-07T00:40:29;7.10;22.90
11423;DHT22;5768;51.476;7.210;2022-12-07T00:45:34;7.20;22.90
11423;DHT22;5768;51.476;7.210;2022-12-07T00:50:40;7.30;22.70
11423;DHT22;5768;51.476;7.210;2022-12-07T00:55:43;7.30;22.50
11423;DHT22;5768;51.476;7.210;2022-12-07T01:00:46;7.30;22.80
11423;DHT22;5768;51.476;7.210;2022-12-07T01:05:53;7.30;22.70
11423;DHT22;5768;51.476;7.210;2022-12-07T01:11:00;7.20;22.80
11423;DHT22;5768;51.476;7.210;2022-12-07T01:16:05;7.10;23.30
11423;DHT22;5768;51.476;7.210;2022-12-07T01:21:16;7.20;23.10
11423;DHT22;5768;51.476;7.210;2022-12-07T01:26:23;7.10;23.20
11423;DHT22;5768;51.476;7.210;2022-12-07T01:31:28;7.00;23.30
11423;DHT22;5768;51.476;7.210;2022-12-07T01:36:33;6.80;23.80
11423;DHT22;5768;51.476;7.210;2022-12-07T01:41:38;6.70;24.00
11423;DHT22;5768;51.476;7.210;2022-12-07T01:46:45;6.60;23.80
11423;DHT22;5768;51.476;7.210;2022-12-07T01:51:57;6.80;24.00
11423;DHT22;5768;51.476;7.210;2022-12-07T01:57:06;6.70;23.90
11423;DHT22;5768;51.476;7.210;2022-12-07T02:02:18;6.60;24.00
11423;DHT22;5768;51.476;7.210;2022-12-07T02:07:27;6.50;24.10
11423;DHT22;5768;51.476;7.210;2022-12-07T02:12:30;6.30;24.40
11423;DHT22;5768;51.476;7.210;2022-12-07T02:17:38;6.40;24.50
11423;DHT22;5768;51.476;7.210;2022-12-07T02:23:00;6.30;24.50
11423;DHT22;5768;51.476;7.210;2022-12-07T02:28:28;6.40;24.40
11423;DHT22;5768;51.476;7.210;2022-12-07T02:33:40;6.60;24.30
11423;DHT22;5768;51.476;7.210;2022-12-07T02:39:02;6.40;24.30
11423;DHT22;5768;51.476;7.210;2022-12-07T02:44:14;6.50;24.20
11423;DHT22;5768;51.476;7.210;2022-12-07T02:49:24;6.40;24.10
11423;DHT22;5768;51.476;7.210;2022-12-07T02:54:30;6.20;24.10
11423;DHT22;5768;51.476;7.210;2022-12-07T02:59:40;6.30;24.20
11423;DHT22;5768;51.476;7.210;2022-12-07T03:05:04;6.10;24.30
11423;DHT22;5768;51.476;7.210;2022-12-07T03:10:31;6.10;24.00
11423;DHT22;5768;51.476;7.210;2022-12-07T03:15:43;6.00;24.20
11423;DHT22;5768;51.476;7.210;2022-12-07T03:21:09;5.90;24.30
11423;DHT22;5768;51.476;7.210;2022-12-07T03:26:17;5.80;24.40
11423;DHT22;5768;51.476;7.210;2022-12-07T03:31:31;5.80;24.30
11423;DHT22;5768;51.476;7.210;2022-12-07T03:36:44;5.80;24.20
11423;DHT22;5768;51.476;7.210;2022-12-07T03:41:54;5.70;24.40
11423;DHT22;5768;51.476;7.210;2022-12-07T03:47:02;5.50;24.60
11423;DHT22;5768;51.476;7.210;2022-12-07T03:52:16;5.60;24.70
11423;DHT22;5768;51.476;7.210;2022-12-07T03:57:26;5.50;24.60
11423;DHT22;5768;51.476;7.210;2022-12-07T04:02:32;5.40;24.80
11423;DHT22;5768;51.476;7.210;2022-12-07T04:07:37;5.50;24.70
11423;DHT22;5768;51.476;7.210;2022-12-07T04:12:42;6.00;24.40
11423;DHT22;5768;51.476;7.210;2022-12-07T04:17:44;6.10;24.00
11423;DHT22;5768;51.476;7.210;2022-12-07T04:22:53;5.90;23.90
11423;DHT22;5768;51.476;7.210;2022-12-07T04:27:55;6.00;24.00
11423;DHT22;5768;51.476;7.210;2022-12-07T04:32:58;6.10;23.70
11423;DHT22;5768;51.476;7.210;2022-12-07T04:38:01;6.00;23.70
11423;DHT22;5768;51.476;7.210;2022-12-07T04:43:04;5.70;23.90
11423;DHT22;5768;51.476;7.210;2022-12-07T04:48:06;5.80;24.10
11423;DHT22;5768;51.476;7.210;2022-12-07T04:53:10;5.60;24.20
11423;DHT22;5768;51.476;7.210;2022-12-07T04:58:12;5.70;24.10
11423;DHT22;5768;51.476;7.210;2022-12-07T05:03:15;5.80;23.90
11423;DHT22;5768;51.476;7.210;2022-12-07T05:08:19;5.80;24.00
11423;DHT22;5768;51.476;7.210;2022-12-07T05:13:21;5.90;24.00
11423;DHT22;5768;51.476;7.210;2022-12-07T05:18:24;5.60;23.80
11423;DHT22;5768;51.476;7.210;2022-12-07T05:23:28;5.60;24.20
11423;DHT22;5768;51.476;7.210;2022-12-07T05:28:31;5.50;24.10
11423;DHT22;5768;51.476;7.210;2022-12-07T05:33:33;5.60;24.10
11423;DHT22;5768;51.476;7.210;2022-12-07T05:38:38;5.70;23.80
11423;DHT22;5768;51.476;7.210;2022-12-07T05:43:41;5.70;23.80
11423;DHT22;5768;51.476;7.210;2022-12-07T05:48:43;6.00;23.60
11423;DHT22;5768;51.476;7.210;2022-12-07T05:54:02;6.00;23.40
11423;DHT22;5768;51.476;7.210;2022-12-07T05:59:04;6.20;22.90
11423;DHT22;5768;51.476;7.210;2022-12-07T06:04:26;6.30;22.50
11423;DHT22;5768;51.476;7.210;2022-12-07T06:09:32;6.30;22.50
11423;DHT22;5768;51.476;7.210;2022-12-07T06:14:35;6.40;22.30
11423;DHT22;5768;51.476;7.210;2022-12-07T06:19:37;6.40;22.20
11423;DHT22;5768;51.476;7.210;2022-12-07T06:24:41;6.30;22.10
11423;DHT22;5768;51.476;7.210;2022-12-07T06:29:44;6.10;22.40
11423;DHT22;5768;51.476;7.210;2022-12-07T06:34:46;6.20;22.50
11423;DHT22;5768;51.476;7.210;2022-12-07T06:39:51;6.30;22.40
11423;DHT22;5768;51.476;7.210;2022-12-07T06:44:53;6.40;21.90
11423;DHT22;5768;51.476;7.210;2022-12-07T06:49:56;6.40;21.80
11423;DHT22;5768;51.476;7.210;2022-12-07T06:55:05;6.30;21.90
11423;DHT22;5768;51.476;7.210;2022-12-07T07:00:09;6.40;21.90
11423;DHT22;5768;51.476;7.210;2022-12-07T07:05:12;6.30;21.70
11423;DHT22;5768;51.476;7.210;2022-12-07T07:10:17;6.30;21.30
11423;DHT22;5768;51.476;7.210;2022-12-07T07:15:20;6.20;21.60
11423;DHT22;5768;51.476;7.210;2022-12-07T07:20:22;6.30;23.80
11423;DHT22;5768;51.476;7.210;2022-12-07T07:25:29;6.20;21.70
11423;DHT22;5768;51.476;7.210;2022-12-07T07:30:34;6.20;21.70
11423;DHT22;5768;51.476;7.210;2022-12-07T07:35:36;6.20;21.50
11423;DHT22;5768;51.476;7.210;2022-12-07T07:40:41;6.40;21.70
11423;DHT22;5768;51.476;7.210;2022-12-07T07:45:44;6.50;21.60
11423;DHT22;5768;51.476;7.210;2022-12-07T07:50:49;6.40;21.40
11423;DHT22;5768;51.476;7.210;2022-12-07T07:55:53;6.40;21.30
11423;DHT22;5768;51.476;7.210;2022-12-07T08:00:56;6.50;21.20
11423;DHT22;5768;51.476;7.210;2022-12-07T08:06:02;6.50;21.00
11423;DHT22;5768;51.476;7.210;2022-12-07T08:11:09;6.50;21.00
11423;DHT22;5768;51.476;7.210;2022-12-07T08:16:12;6.50;21.00
11423;DHT22;5768;51.476;7.210;2022-12-07T08:21:16;6.60;20.80
11423;DHT22;5768;51.476;7.210;2022-12-07T08:26:20;6.60;20.20
11423;DHT22;5768;51.476;7.210;2022-12-07T08:31:27;6.80;20.00
11423;DHT22;5768;51.476;7.210;2022-12-07T08:36:30;6.70;20.00
11423;DHT22;5768;51.476;7.210;2022-12-07T08:41:33;6.90;20.00
11423;DHT22;5768;51.476;7.210;2022-12-07T08:46:39;6.70;20.10
11423;DHT22;5768;51.476;7.210;2022-12-07T08:51:51;7.10;20.00
11423;DHT22;5768;51.476;7.210;2022-12-07T08:56:55;7.20;19.90
11423;DHT22;5768;51.476;7.210;2022-12-07T09:02:00;7.20;19.80
11423;DHT22;5768;51.476;7.210;2022-12-07T09:07:10;7.30;19.90
11423;DHT22;5768;51.476;7.210;2022-12-07T09:12:14;7.20;19.80
11423;DHT22;5768;51.476;7.210;2022-12-07T09:17:17;7.00;20.00
11423;DHT22;5768;51.476;7.210;2022-12-07T09:22:19;6.80;20.20
11423;DHT22;5768;51.476;7.210;2022-12-07T09:27:23;6.90;20.50
11423;DHT22;5768;51.476;7.210;2022-12-07T09:32:26;7.10;20.80
11423;DHT22;5768;51.476;7.210;2022-12-07T09:37:28;7.60;20.20
11423;DHT22;5768;51.476;7.210;2022-12-07T09:42:36;7.50;19.50
11423;DHT22;5768;51.476;7.210;2022-12-07T09:47:40;7.00;20.20
11423;DHT22;5768;51.476;7.210;2022-12-07T09:52:43;7.20;20.20
11423;DHT22;5768;51.476;7.210;2022-12-07T09:57:49;7.20;20.20
11423;DHT22;5768;51.476;7.210;2022-12-07T10:02:58;7.60;20.00
11423;DHT22;5768;51.476;7.210;2022-12-07T10:08:08;7.80;19.60
11423;DHT22;5768;51.476;7.210;2022-12-07T10:13:17;7.80;19.40
11423;DHT22;5768;51.476;7.210;2022-12-07T10:18:28;7.50;19.60
11423;DHT22;5768;51.476;7.210;2022-12-07T10:23:31;7.60;19.40
11423;DHT22;5768;51.476;7.210;2022-12-07T10:28:36;7.60;19.50
11423;DHT22;5768;51.476;7.210;2022-12-07T10:33:49;7.40;19.80
11423;DHT22;5768;51.476;7.210;2022-12-07T10:38:59;7.40;19.60
11423;DHT22;5768;51.476;7.210;2022-12-07T10:44:04;7.70;19.30
11423;DHT22;5768;51.476;7.210;2022-12-07T10:49:17;7.70;19.40
11423;DHT22;5768;51.476;7.210;2022-12-07T10:54:49;7.40;19.30
11423;DHT22;5768;51.476;7.210;2022-12-07T11:00:09;7.30;19.70
11423;DHT22;5768;51.476;7.210;2022-12-07T11:05:22;7.30;19.70
11423;DHT22;5768;51.476;7.210;2022-12-07T11:10:37;7.50;19.50
11423;DHT22;5768;51.476;7.210;2022-12-07T11:16:01;7.50;19.50
11423;DHT22;5768;51.476;7.210;2022-12-07T11:21:21;7.30;19.60
11423;DHT22;5768;51.476;7.210;2022-12-07T11:26:40;7.50;19.30
11423;DHT22;5768;51.476;7.210;2022-12-07T11:32:01;8.00;18.90
11423;DHT22;5768;51.476;7.210;2022-12-07T11:37:16;7.80;18.70
11423;DHT22;5768;51.476;7.210;2022-12-07T11:42:25;8.00;18.90
11423;DHT22;5768;51.476;7.210;2022-12-07T11:47:38;8.10;18.60
11423;DHT22;5768;51.476;7.210;2022-12-07T11:52:49;8.30;18.40
11423;DHT22;5768;51.476;7.210;2022-12-07T11:58:03;7.90;18.50
11423;DHT22;5768;51.476;7.210;2022-12-07T12:03:16;8.00;18.70
11423;DHT22;5768;51.476;7.210;2022-12-07T12:08:36;7.90;18.40
11423;DHT22;5768;51.476;7.210;2022-12-07T12:14:10;7.90;18.60
11423;DHT22;5768;51.476;7.210;2022-12-07T12:19:46;7.60;18.40
11423;DHT22;5768;51.476;7.210;2022-12-07T12:25:04;7.70;18.70
11423;DHT22;5768;51.476;7.210;2022-12-07T12:30:27;7.60;18.60
11423;DHT22;5768;51.476;7.210;2022-12-07T12:35:36;7.70;18.60
11423;DHT22;5768;51.476;7.210;2022-12-07T12:40:43;7.90;18.40
11423;DHT22;5768;51.476;7.210;2022-12-07T12:45:45;7.90;18.40
11423;DHT22;5768;51.476;7.210;2022-12-07T12:50:49;8.10;18.20
11423;DHT22;5768;51.476;7.210;2022-12-07T12:56:38;8.50;18.00
11423;DHT22;5768;51.476;7.210;2022-12-07T13:01:46;8.40;17.80
11423;DHT22;5768;51.476;7.210;2022-12-07T13:06:50;8.10;18.00
11423;DHT22;5768;51.476;7.210;2022-12-07T13:12:00;8.30;18.00
11423;DHT22;5768;51.476;7.210;2022-12-07T13:17:08;8.60;17.90
11423;DHT22;5768;51.476;7.210;2022-12-07T13:22:52;8.70;17.80
11423;DHT22;5768;51.476;7.210;2022-12-07T13:28:07;8.60;18.00
11423;DHT22;5768;51.476;7.210;2022-12-07T13:33:17;8.80;18.10
11423;DHT22;5768;51.476;7.210;2022-12-07T13:38:27;8.50;18.00
11423;DHT22;5768;51.476;7.210;2022-12-07T13:43:43;8.60;18.20
11423;DHT22;5768;51.476;7.210;2022-12-07T13:48:48;8.70;17.90
11423;DHT22;5768;51.476;7.210;2022-12-07T13:53:54;8.50;18.20
11423;DHT22;5768;51.476;7.210;2022-12-07T13:58:57;8.20;18.50
11423;DHT22;5768;51.476;7.210;2022-12-07T14:09:52;8.10;18.80
11423;DHT22;5768;51.476;7.210;2022-12-07T14:14:56;7.10;19.70
11423;DHT22;5768;51.476;7.210;2022-12-07T14:20:03;7.20;20.50
11423;DHT22;5768;51.476;7.210;2022-12-07T14:25:33;7.40;19.50
11423;DHT22;5768;51.476;7.210;2022-12-07T14:30:46;7.50;19.50
11423;DHT22;5768;51.476;7.210;2022-12-07T14:35:48;7.40;19.20
11423;DHT22;5768;51.476;7.210;2022-12-07T14:40:59;7.30;19.50
11423;DHT22;5768;51.476;7.210;2022-12-07T14:46:20;6.90;19.80
11423;DHT22;5768;51.476;7.210;2022-12-07T14:51:26;6.70;20.40
11423;DHT22;5768;51.476;7.210;2022-12-07T14:56:29;6.60;20.40
11423;DHT22;5768;51.476;7.210;2022-12-07T15:01:32;6.60;20.70
11423;DHT22;5768;51.476;7.210;2022-12-07T15:06:34;6.80;20.80
11423;DHT22;5768;51.476;7.210;2022-12-07T15:11:38;7.00;20.40
11423;DHT22;5768;51.476;7.210;2022-12-07T15:16:42;6.90;20.40
11423;DHT22;5768;51.476;7.210;2022-12-07T15:21:45;7.10;20.10
11423;DHT22;5768;51.476;7.210;2022-12-07T15:26:49;7.20;20.10
11423;DHT22;5768;51.476;7.210;2022-12-07T15:31:58;7.10;20.10
11423;DHT22;5768;51.476;7.210;2022-12-07T15:37:01;6.80;20.40
11423;DHT22;5768;51.476;7.210;2022-12-07T15:42:04;6.90;20.60
11423;DHT22;5768;51.476;7.210;2022-12-07T15:47:07;6.90;20.40
11423;DHT22;5768;51.476;7.210;2022-12-07T15:52:09;6.70;20.60
11423;DHT22;5768;51.476;7.210;2022-12-07T15:57:13;6.50;20.00
11423;DHT22;5768;51.476;7.210;2022-12-07T16:02:15;6.50;20.00
11423;DHT22;5768;51.476;7.210;2022-12-07T16:07:17;6.30;20.20
11423;DHT22;5768;51.476;7.210;2022-12-07T16:12:23;6.30;20.20
11423;DHT22;5768;51.476;7.210;2022-12-07T16:17:25;6.40;20.30
11423;DHT22;5768;51.476;7.210;2022-12-07T16:22:28;6.60;20.00
11423;DHT22;5768;51.476;7.210;2022-12-07T16:27:32;6.50;20.00
11423;DHT22;5768;51.476;7.210;2022-12-07T16:32:34;6.40;20.10
11423;DHT22;5768;51.476;7.210;2022-12-07T16:37:36;6.30;20.30
11423;DHT22;5768;51.476;7.210;2022-12-07T16:42:40;6.50;20.10
11423;DHT22;5768;51.476;7.210;2022-12-07T16:47:43;6.40;20.10
11423;DHT22;5768;51.476;7.210;2022-12-07T16:52:45;6.40;20.30
11423;DHT22;5768;51.476;7.210;2022-12-07T16:57:49;6.30;20.40
11423;DHT22;5768;51.476;7.210;2022-12-07T17:02:52;6.30;20.40
11423;DHT22;5768;51.476;7.210;2022-12-07T17:07:56;6.30;20.10
11423;DHT22;5768;51.476;7.210;2022-12-07T17:13:00;6.50;20.10
11423;DHT22;5768;51.476;7.210;2022-12-07T17:18:03;6.40;20.10
11423;DHT22;5768;51.476;7.210;2022-12-07T17:23:06;6.60;20.00
11423;DHT22;5768;51.476;7.210;2022-12-07T17:28:09;6.50;20.00
11423;DHT22;5768;51.476;7.210;2022-12-07T17:33:11;6.70;20.00
11423;DHT22;5768;51.476;7.210;2022-12-07T17:38:14;6.90;19.70
11423;DHT22;5768;51.476;7.210;2022-12-07T17:43:21;7.20;19.50
11423;DHT22;5768;51.476;7.210;2022-12-07T17:48:23;6.80;19.60
11423;DHT22;5768;51.476;7.210;2022-12-07T17:53:28;6.50;20.30
11423;DHT22;5768;51.476;7.210;2022-12-07T17:58:34;6.20;20.60
11423;DHT22;5768;51.476;7.210;2022-12-07T18:03:36;6.40;19.80
11423;DHT22;5768;51.476;7.210;2022-12-07T18:08:38;6.60;19.60
11423;DHT22;5768;51.476;7.210;2022-12-07T18:13:42;6.90;19.70
11423;DHT22;5768;51.476;7.210;2022-12-07T18:18:45;7.00;19.40
11423;DHT22;5768;51.476;7.210;2022-12-07T18:23:49;7.00;19.40
11423;DHT22;5768;51.476;7.210;2022-12-07T18:28:57;7.10;19.40
11423;DHT22;5768;51.476;7.210;2022-12-07T18:34:01;7.00;19.50
11423;DHT22;5768;51.476;7.210;2022-12-07T18:39:04;7.00;19.50
11423;DHT22;5768;51.476;7.210;2022-12-07T18:44:11;6.90;19.60
11423;DHT22;5768;51.476;7.210;2022-12-07T18:49:14;6.90;19.50
11423;DHT22;5768;51.476;7.210;2022-12-07T18:54:16;6.70;19.70
11423;DHT22;5768;51.476;7.210;2022-12-07T18:59:20;6.70;19.90
11423;DHT22;5768;51.476;7.210;2022-12-07T19:04:39;6.40;20.00
11423;DHT22;5768;51.476;7.210;2022-12-07T19:09:42;6.50;19.80
11423;DHT22;5768;51.476;7.210;2022-12-07T19:14:45;6.50;19.90
11423;DHT22;5768;51.476;7.210;2022-12-07T19:19:48;6.40;20.00
11423;DHT22;5768;51.476;7.210;2022-12-07T19:24:52;6.50;20.00
11423;DHT22;5768;51.476;7.210;2022-12-07T19:29:57;6.70;19.60
11423;DHT22;5768;51.476;7.210;2022-12-07T19:34:59;6.80;19.60
11423;DHT22;5768;51.476;7.210;2022-12-07T19:40:08;6.70;19.50
11423;DHT22;5768;51.476;7.210;2022-12-07T19:45:12;6.70;19.70
11423;DHT22;5768;51.476;7.210;2022-12-07T19:50:15;6.70;19.50
11423;DHT22;5768;51.476;7.210;2022-12-07T19:55:17;6.80;19.70
11423;DHT22;5768;51.476;7.210;2022-12-07T20:00:21;6.40;19.70
11423;DHT22;5768;51.476;7.210;2022-12-07T20:05:24;6.40;19.90
11423;DHT22;5768;51.476;7.210;2022-12-07T20:10:26;6.30;20.00
11423;DHT22;5768;51.476;7.210;2022-12-07T20:15:30;6.30;20.00
11423;DHT22;5768;51.476;7.210;2022-12-07T20:20:35;6.40;20.10
11423;DHT22;5768;51.476;7.210;2022-12-07T20:25:38;6.50;20.00
11423;DHT22;5768;51.476;7.210;2022-12-07T20:30:48;6.30;20.30
11423;DHT22;5768;51.476;7.210;2022-12-07T20:35:58;6.20;20.70
11423;DHT22;5768;51.476;7.210;2022-12-07T20:41:05;6.20;20.80
11423;DHT22;5768;51.476;7.210;2022-12-07T20:46:30;6.20;20.70
11423;DHT22;5768;51.476;7.210;2022-12-07T20:51:36;6.30;20.60
11423;DHT22;5768;51.476;7.210;2022-12-07T20:56:38;6.10;20.90
11423;DHT22;5768;51.476;7.210;2022-12-07T21:01:43;6.20;21.20
11423;DHT22;5768;51.476;7.210;2022-12-07T21:06:49;6.10;21.10
11423;DHT22;5768;51.476;7.210;2022-12-07T21:11:51;6.20;20.80
11423;DHT22;5768;51.476;7.210;2022-12-07T21:16:56;6.00;21.20
11423;DHT22;5768;51.476;7.210;2022-12-07T21:21:58;5.90;21.40
11423;DHT22;5768;51.476;7.210;2022-12-07T21:27:00;5.80;21.80
11423;DHT22;5768;51.476;7.210;2022-12-07T21:32:11;5.90;21.90
11423;DHT22;5768;51.476;7.210;2022-12-07T21:37:14;5.90;21.90
11423;DHT22;5768;51.476;7.210;2022-12-07T21:42:16;6.00;21.90
11423;DHT22;5768;51.476;7.210;2022-12-07T21:47:23;5.90;22.00
11423;DHT22;5768;51.476;7.210;2022-12-07T21:52:25;5.80;22.40
11423;DHT22;5768;51.476;7.210;2022-12-07T21:57:27;6.10;21.90
11423;DHT22;5768;51.476;7.210;2022-12-07T22:02:31;6.00;21.50
11423;DHT22;5768;51.476;7.210;2022-12-07T22:07:33;6.20;21.60
11423;DHT22;5768;51.476;7.210;2022-12-07T22:12:36;6.10;21.70
11423;DHT22;5768;51.476;7.210;2022-12-07T22:17:46;6.10;23.00
11423;DHT22;5768;51.476;7.210;2022-12-07T22:22:50;6.00;22.50
11423;DHT22;5768;51.476;7.210;2022-12-07T22:27:53;6.00;22.80
11423;DHT22;5768;51.476;7.210;2022-12-07T22:33:00;6.20;21.70
11423;DHT22;5768;51.476;7.210;2022-12-07T22:38:02;6.10;22.90
11423;DHT22;5768;51.476;7.210;2022-12-07T22:43:04;6.10;22.70
11423;DHT22;5768;51.476;7.210;2022-12-07T22:48:08;6.10;22.10
11423;DHT22;5768;51.476;7.210;2022-12-07T22:53:11;6.20;22.50
11423;DHT22;5768;51.476;7.210;2022-12-07T22:58:13;6.20;22.20
11423;DHT22;5768;51.476;7.210;2022-12-07T23:03:17;5.90;22.30
11423;DHT22;5768;51.476;7.210;2022-12-07T23:08:25;6.10;22.00
11423;DHT22;5768;51.476;7.210;2022-12-07T23:13:27;6.00;21.70
11423;DHT22;5768;51.476;7.210;2022-12-07T23:18:34;5.90;21.90
11423;DHT22;5768;51.476;7.210;2022-12-07T23:23:39;5.80;22.00
11423;DHT22;5768;51.476;7.210;2022-12-07T23:28:42;5.70;22.30
11423;DHT22;5768;51.476;7.210;2022-12-07T23:33:46;5.80;22.60
11423;DHT22;5768;51.476;7.210;2022-12-07T23:38:49;5.50;22.70
11423;DHT22;5768;51.476;7.210;2022-12-07T23:43:53;5.50;22.50
11423;DHT22;5768;51.476;7.210;2022-12-07T23:48:59;5.60;22.50
11423;DHT22;5768;51.476;7.210;2022-12-07T23:54:03;5.60;22.50
11423;DHT22;5768;51.476;7.210;2022-12-07T23:59:06;5.60;22.60
